Andrew J. Barberi — WYR3370 — position and weather

sailwx.info

Track history (hours):
 
Tides and Currents Weather Stations Pressure Air Temp Water Temp Dewpoint Dewpoint Depression Visibility Wind Speed Wind Dir Waves Ship Positions

Andrew J. Barberi

Owner: CITY OF NEW YORK, Brooklyn, NY. More information available from US FCC via Universal Licensing System and Coast Guard Vessel Documentation Center.

Last reported at 2016-Feb-13 05:32 UTC. Time now 2016-Feb-13 06:48 UTC.
Position N 40°39' W 074°04'.

Length 94 m; draft 4.3 m.

Type: Ship. MMSI: 367000150.

Date/timePositionNaut miles runAvg speedWind from/ knotsBaromVisibWave heightAir tempDewpointWater temp
2016-Feb-13 05:32N 40°39' W 074°04'0 0.1
2016-Feb-13 04:33N 40°39' W 074°04'0 0.1
2016-Feb-13 03:34N 40°39' W 074°04'4 4.2
2016-Feb-13 02:33N 40°42' W 074°01'4 4.2
2016-Feb-13 01:33N 40°39' W 074°04'2 1.9
2016-Feb-13 00:33N 40°40' W 074°03'1 0.7
2016-Feb-12 23:33N 40°39' W 074°03'1 0.6
2016-Feb-12 22:33N 40°39' W 074°04'1 0.5
2016-Feb-12 21:33N 40°39' W 074°04'0 0.1
2016-Feb-12 20:33N 40°39' W 074°04'4 4.2
2016-Feb-12 19:33N 40°42' W 074°01'0 0.1
2016-Feb-12 18:34N 40°42' W 074°01'4 4.2
2016-Feb-12 17:33N 40°39' W 074°04'0 0.0
2016-Feb-12 16:33N 40°39' W 074°04'4 2.1
2016-Feb-12 14:34N 40°42' W 074°01'0 0.0
2016-Feb-12 13:33N 40°42' W 074°01'0 0.0
2016-Feb-12 12:33N 40°42' W 074°01'4 1.4
2016-Feb-12 09:29N 40°39' W 074°04'0 0.0
2016-Feb-12 08:32N 40°39' W 074°04'0 0.0
2016-Feb-12 07:32N 40°39' W 074°04'0 0.0
2016-Feb-12 06:32N 40°39' W 074°04'0 0.0
2016-Feb-12 05:32N 40°39' W 074°04'0 0.1
2016-Feb-12 04:33N 40°39' W 074°04'0 0.1
2016-Feb-12 03:33N 40°39' W 074°04'4 4.2
2016-Feb-12 02:34N 40°42' W 074°01'4 4.2
2016-Feb-12 01:34N 40°39' W 074°04'2 1.8
2016-Feb-12 00:33N 40°40' W 074°03'0 0.0
2016-Feb-11 23:33N 40°40' W 074°03'2 1.7
2016-Feb-11 22:33N 40°39' W 074°04'0 0.2
2016-Feb-11 21:33N 40°39' W 074°04'4 2.1
2016-Feb-11 19:33N 40°42' W 074°01'0 0.0
2016-Feb-11 16:33N 40°42' W 074°01'0 0.0
2016-Feb-11 14:34N 40°42' W 074°01'0 0.1
2016-Feb-11 13:34N 40°42' W 074°01'0 0.0
2016-Feb-11 12:33N 40°42' W 074°01'4 4.2
2016-Feb-11 11:33N 40°39' W 074°04'0 0.1
2016-Feb-11 10:33N 40°39' W 074°04'0 0.0
2016-Feb-11 09:32N 40°39' W 074°04'0 0.0
2016-Feb-11 08:26N 40°39' W 074°04'0 0.0
2016-Feb-11 07:23N 40°39' W 074°04'0 0.0
2016-Feb-11 06:29N 40°39' W 074°04'0 0.0
2016-Feb-11 05:33N 40°39' W 074°04'0 0.1
2016-Feb-11 04:33N 40°39' W 074°04'0 0.0
2016-Feb-11 03:33N 40°39' W 074°04'4 4.1
2016-Feb-11 02:34N 40°42' W 074°01'4 4.0
2016-Feb-11 01:33N 40°39' W 074°04'2 2.2
2016-Feb-11 00:33N 40°40' W 074°03'0 0.1
2016-Feb-10 23:33N 40°40' W 074°03'2 1.6
2016-Feb-10 22:33N 40°39' W 074°04'0 0.5
2016-Feb-10 21:33N 40°39' W 074°04'0 0.1
2016-Feb-10 20:33N 40°39' W 074°04'4 3.8
2016-Feb-10 19:27N 40°42' W 074°01'4 1.0
2016-Feb-10 15:17N 40°39' W 074°04'4 5.8
2016-Feb-10 14:33N 40°42' W 074°01'0 0.1
2016-Feb-10 13:33N 40°42' W 074°01'0 0.1
2016-Feb-10 12:33N 40°42' W 074°01'4 4.1
2016-Feb-10 11:34N 40°39' W 074°04'0 0.0
2016-Feb-10 10:33N 40°39' W 074°04'0 0.0
2016-Feb-10 09:33N 40°39' W 074°04'0 0.0
2016-Feb-10 08:32N 40°39' W 074°04'0 0.0
2016-Feb-10 07:32N 40°39' W 074°04'0 0.0
2016-Feb-10 06:32N 40°39' W 074°04'0 0.2
2016-Feb-10 05:33N 40°39' W 074°04'0 0.2
2016-Feb-10 04:34N 40°39' W 074°04'0 0.1
2016-Feb-10 03:33N 40°39' W 074°04'4 4.2
2016-Feb-10 02:33N 40°42' W 074°01'4 4.3
2016-Feb-10 01:33N 40°39' W 074°04'2 1.9
2016-Feb-10 00:33N 40°40' W 074°03'1 0.9
2016-Feb-09 23:34N 40°39' W 074°03'0 0.4
2016-Feb-09 22:34N 40°39' W 074°04'1 0.6
2016-Feb-09 21:34N 40°39' W 074°04'0 0.1
2016-Feb-09 20:33N 40°39' W 074°04'4 3.9
2016-Feb-09 19:28N 40°42' W 074°01'4 2.1
2016-Feb-09 17:24N 40°39' W 074°04'0 0.1
2016-Feb-09 16:34N 40°39' W 074°04'0 0.1
2016-Feb-09 15:33N 40°39' W 074°04'4 4.3
2016-Feb-09 14:34N 40°42' W 074°01'0 0.0
2016-Feb-09 13:34N 40°42' W 074°01'0 0.2
2016-Feb-09 12:33N 40°42' W 074°01'4 4.3
2016-Feb-09 11:34N 40°38' W 074°04'1 0.5
2016-Feb-09 10:34N 40°39' W 074°04'0 0.0
2016-Feb-09 09:33N 40°39' W 074°04'0 0.0
2016-Feb-09 08:30N 40°39' W 074°04'0 0.0
2016-Feb-09 07:33N 40°39' W 074°04'0 0.0
2016-Feb-09 06:33N 40°39' W 074°04'0 0.0
2016-Feb-09 05:33N 40°39' W 074°04'0 0.1
2016-Feb-09 04:34N 40°39' W 074°04'0 0.1
2016-Feb-09 03:34N 40°39' W 074°04'4 4.1
2016-Feb-09 02:33N 40°42' W 074°01'1 0.6
2016-Feb-09 00:33N 40°41' W 074°02'1 0.8
2016-Feb-08 23:33N 40°40' W 074°03'1 1.4
2016-Feb-08 22:34N 40°39' W 074°03'1 0.8
2016-Feb-08 21:33N 40°39' W 074°04'0 0.1
2016-Feb-08 20:34N 40°39' W 074°04'4 4.2
2016-Feb-08 19:34N 40°42' W 074°01'0 0.0
2016-Feb-08 18:34N 40°42' W 074°01'0 0.2
2016-Feb-08 17:33N 40°42' W 074°01'0 0.2
2016-Feb-08 16:26N 40°42' W 074°01'4 5.0
2016-Feb-08 15:33N 40°39' W 074°04'0 0.1
2016-Feb-08 14:33N 40°39' W 074°04'4 4.0
2016-Feb-08 13:29N 40°42' W 074°01'4 0.9
2016-Feb-08 08:31N 40°39' W 074°04'0 0.0
2016-Feb-08 07:31N 40°39' W 074°04'0 0.0
2016-Feb-08 06:31N 40°39' W 074°04'0 0.0
2016-Feb-08 05:33N 40°39' W 074°04'4 4.3
2016-Feb-08 04:33N 40°42' W 074°01'0 0.0
2016-Feb-08 03:34N 40°42' W 074°01'0 0.0
2016-Feb-08 02:34N 40°42' W 074°01'0 0.1
2016-Feb-08 01:33N 40°42' W 074°01'0 0.0
2016-Feb-08 00:33N 40°42' W 074°01'0 0.0
2016-Feb-07 23:33N 40°42' W 074°01'4 4.3
2016-Feb-07 22:33N 40°39' W 074°04'0 0.1
2016-Feb-07 21:33N 40°39' W 074°04'4 4.3
2016-Feb-07 20:33N 40°42' W 074°01'4 3.8
2016-Feb-07 19:27N 40°39' W 074°04'0 0.1
2016-Feb-07 18:33N 40°39' W 074°04'4 4.2
2016-Feb-07 17:33N 40°42' W 074°01'2 2.5
2016-Feb-07 16:34N 40°40' W 074°03'2 1.8
2016-Feb-07 15:33N 40°39' W 074°04'0 0.1
2016-Feb-07 14:33N 40°39' W 074°04'0 0.1
2016-Feb-07 13:33N 40°39' W 074°04'0 0.2
2016-Feb-07 12:33N 40°39' W 074°04'0 0.1
2016-Feb-07 11:33N 40°39' W 074°04'0 0.0
2016-Feb-07 10:33N 40°39' W 074°04'0 0.0
2016-Feb-07 09:32N 40°39' W 074°04'0 0.0
2016-Feb-07 08:32N 40°39' W 074°04'0 0.0
2016-Feb-07 07:32N 40°39' W 074°04'0 0.0
2016-Feb-07 06:32N 40°39' W 074°04'0 0.0
2016-Feb-07 05:33N 40°39' W 074°04'4 4.3
2016-Feb-07 04:34N 40°42' W 074°01'0 0.1
2016-Feb-07 03:33N 40°42' W 074°01'0 0.0
2016-Feb-07 02:33N 40°42' W 074°01'0 0.0
2016-Feb-07 01:33N 40°42' W 074°01'0 0.0
2016-Feb-07 00:34N 40°42' W 074°01'0 0.1
2016-Feb-06 23:33N 40°42' W 074°01'4 4.3
2016-Feb-06 22:33N 40°39' W 074°04'0 0.2
2016-Feb-06 21:33N 40°39' W 074°04'4 4.0
2016-Feb-06 20:33N 40°42' W 074°01'4 4.1
2016-Feb-06 19:33N 40°39' W 074°04'0 0.1
2016-Feb-06 18:33N 40°39' W 074°04'4 4.2
2016-Feb-06 17:34N 40°42' W 074°01'4 4.3
2016-Feb-06 16:34N 40°39' W 074°04'0 0.2
2016-Feb-06 15:33N 40°39' W 074°04'0 0.0
2016-Feb-06 14:34N 40°39' W 074°04'0 0.0
2016-Feb-06 13:33N 40°39' W 074°04'0 0.2
2016-Feb-06 12:33N 40°39' W 074°04'0 0.0
2016-Feb-06 11:33N 40°39' W 074°04'0 0.0
2016-Feb-06 10:33N 40°39' W 074°04'0 0.0
2016-Feb-06 09:31N 40°39' W 074°04'0 0.0
2016-Feb-06 08:31N 40°39' W 074°04'0 0.0
2016-Feb-06 07:31N 40°39' W 074°04'0 0.0
2016-Feb-06 06:31N 40°39' W 074°04'0 0.0
2016-Feb-06 05:33N 40°39' W 074°04'0 0.0
2016-Feb-06 04:33N 40°39' W 074°04'4 2.1
2016-Feb-06 02:33N 40°42' W 074°01'4 4.3
2016-Feb-06 01:33N 40°39' W 074°04'2 1.8
2016-Feb-06 00:33N 40°40' W 074°03'1 0.7
2016-Feb-05 23:34N 40°39' W 074°03'0 0.2
2016-Feb-05 22:33N 40°39' W 074°03'1 0.9
2016-Feb-05 21:33N 40°39' W 074°04'0 0.1
2016-Feb-05 20:33N 40°39' W 074°04'4 4.3
2016-Feb-05 19:33N 40°42' W 074°01'0 0.1
2016-Feb-05 18:34N 40°42' W 074°01'4 4.2
2016-Feb-05 17:33N 40°39' W 074°04'0 0.0
2016-Feb-05 16:33N 40°39' W 074°04'0 0.1
2016-Feb-05 15:33N 40°39' W 074°04'4 4.2
2016-Feb-05 14:34N 40°42' W 074°01'0 0.2
2016-Feb-05 13:33N 40°42' W 074°01'0 0.0
2016-Feb-05 12:34N 40°42' W 074°01'4 4.3
2016-Feb-05 11:34N 40°39' W 074°04'0 0.0
2016-Feb-05 10:33N 40°39' W 074°04'0 0.0
2016-Feb-05 09:32N 40°39' W 074°04'0 0.0
2016-Feb-05 08:32N 40°39' W 074°04'0 0.0
2016-Feb-05 07:32N 40°39' W 074°04'0 0.0
2016-Feb-05 06:32N 40°39' W 074°04'0 0.0
2016-Feb-05 05:32N 40°39' W 074°04'0 0.1
2016-Feb-05 04:33N 40°39' W 074°04'0 0.1
2016-Feb-05 03:33N 40°39' W 074°04'4 4.2
2016-Feb-05 02:34N 40°42' W 074°01'4 4.3
2016-Feb-05 01:33N 40°39' W 074°04'4 4.2
2016-Feb-05 00:34N 40°42' W 074°01'3 3.1
2016-Feb-04 23:33N 40°39' W 074°03'0 0.3
2016-Feb-04 22:34N 40°39' W 074°04'1 0.8
2016-Feb-04 21:34N 40°39' W 074°04'0 0.1
2016-Feb-04 20:33N 40°39' W 074°04'4 4.1
2016-Feb-04 19:34N 40°42' W 074°01'4 4.1
2016-Feb-04 18:33N 40°39' W 074°04'0 0.1
2016-Feb-04 17:34N 40°39' W 074°04'0 0.0
2016-Feb-04 15:24N 40°39' W 074°04'0 0.1
2016-Feb-04 14:33N 40°39' W 074°04'3 3.1
2016-Feb-04 13:33N 40°41' W 074°02'1 0.7
2016-Feb-04 12:33N 40°42' W 074°01'4 4.1
2016-Feb-04 11:34N 40°38' W 074°04'0 0.4
2016-Feb-04 10:34N 40°39' W 074°04'0 0.0
2016-Feb-04 09:34N 40°39' W 074°04'0 0.0
2016-Feb-04 08:32N 40°39' W 074°04'0 0.0
2016-Feb-04 07:32N 40°39' W 074°04'0 0.0
2016-Feb-04 06:32N 40°39' W 074°04'0 0.0
2016-Feb-04 05:32N 40°39' W 074°04'0 0.1
2016-Feb-04 04:33N 40°39' W 074°04'0 0.1
2016-Feb-04 03:34N 40°39' W 074°04'4 4.2
2016-Feb-04 02:33N 40°42' W 074°01'4 4.3
2016-Feb-04 01:33N 40°39' W 074°04'2 1.6
2016-Feb-04 00:33N 40°40' W 074°03'0 0.2
2016-Feb-03 23:33N 40°40' W 074°03'1 0.5
2016-Feb-03 22:33N 40°39' W 074°03'1 1.0
2016-Feb-03 21:34N 40°39' W 074°04'0 0.0
2016-Feb-03 20:33N 40°39' W 074°04'4 4.2
2016-Feb-03 19:33N 40°42' W 074°01'0 0.2
2016-Feb-03 18:34N 40°42' W 074°01'4 3.1
2016-Feb-03 17:20N 40°39' W 074°04'0 0.4
2016-Feb-03 16:34N 40°39' W 074°04'4 4.1
2016-Feb-03 15:34N 40°42' W 074°01'4 4.1
2016-Feb-03 14:32N 40°39' W 074°04'0 0.1
2016-Feb-03 13:31N 40°39' W 074°04'0 0.1
2016-Feb-03 12:31N 40°39' W 074°04'0 0.0
2016-Feb-03 11:33N 40°39' W 074°04'0 0.1
2016-Feb-03 10:33N 40°39' W 074°04'0 0.0
2016-Feb-03 09:33N 40°39' W 074°04'0 0.0
2016-Feb-03 08:31N 40°39' W 074°04'0 0.0
2016-Feb-03 07:31N 40°39' W 074°04'0 0.0
2016-Feb-03 06:31N 40°39' W 074°04'  
Track history (hours):
 
Tides and Currents Weather Stations Pressure Air Temp Water Temp Dewpoint Dewpoint Depression Visibility Wind Speed Wind Dir Waves Ship Positions

Andrew J. Barberi

Owner: CITY OF NEW YORK, Brooklyn, NY. More information available from US FCC via Universal Licensing System and Coast Guard Vessel Documentation Center.

Last reported at 2016-Feb-13 05:32 UTC. Time now 2016-Feb-13 06:48 UTC.
Position N 40°39' W 074°04'.

Length 94 m; draft 4.3 m.

Type: Ship. MMSI: 367000150.

Date/timePositionNaut miles runAvg speedWind from/ knotsBaromVisibWave heightAir tempDewpointWater temp
2016-Feb-13 05:32N 40°39' W 074°04'0 0.1
2016-Feb-13 04:33N 40°39' W 074°04'0 0.1
2016-Feb-13 03:34N 40°39' W 074°04'4 4.2
2016-Feb-13 02:33N 40°42' W 074°01'4 4.2
2016-Feb-13 01:33N 40°39' W 074°04'2 1.9
2016-Feb-13 00:33N 40°40' W 074°03'1 0.7
2016-Feb-12 23:33N 40°39' W 074°03'1 0.6
2016-Feb-12 22:33N 40°39' W 074°04'1 0.5
2016-Feb-12 21:33N 40°39' W 074°04'0 0.1
2016-Feb-12 20:33N 40°39' W 074°04'4 4.2
2016-Feb-12 19:33N 40°42' W 074°01'0 0.1
2016-Feb-12 18:34N 40°42' W 074°01'4 4.2
2016-Feb-12 17:33N 40°39' W 074°04'0 0.0
2016-Feb-12 16:33N 40°39' W 074°04'4 2.1
2016-Feb-12 14:34N 40°42' W 074°01'0 0.0
2016-Feb-12 13:33N 40°42' W 074°01'0 0.0
2016-Feb-12 12:33N 40°42' W 074°01'4 1.4
2016-Feb-12 09:29N 40°39' W 074°04'0 0.0
2016-Feb-12 08:32N 40°39' W 074°04'0 0.0
2016-Feb-12 07:32N 40°39' W 074°04'0 0.0
2016-Feb-12 06:32N 40°39' W 074°04'0 0.0
2016-Feb-12 05:32N 40°39' W 074°04'0 0.1
2016-Feb-12 04:33N 40°39' W 074°04'0 0.1
2016-Feb-12 03:33N 40°39' W 074°04'4 4.2
2016-Feb-12 02:34N 40°42' W 074°01'4 4.2
2016-Feb-12 01:34N 40°39' W 074°04'2 1.8
2016-Feb-12 00:33N 40°40' W 074°03'0 0.0
2016-Feb-11 23:33N 40°40' W 074°03'2 1.7
2016-Feb-11 22:33N 40°39' W 074°04'0 0.2
2016-Feb-11 21:33N 40°39' W 074°04'4 2.1
2016-Feb-11 19:33N 40°42' W 074°01'0 0.0
2016-Feb-11 16:33N 40°42' W 074°01'0 0.0
2016-Feb-11 14:34N 40°42' W 074°01'0 0.1
2016-Feb-11 13:34N 40°42' W 074°01'0 0.0
2016-Feb-11 12:33N 40°42' W 074°01'4 4.2
2016-Feb-11 11:33N 40°39' W 074°04'0 0.1
2016-Feb-11 10:33N 40°39' W 074°04'0 0.0
2016-Feb-11 09:32N 40°39' W 074°04'0 0.0
2016-Feb-11 08:26N 40°39' W 074°04'0 0.0
2016-Feb-11 07:23N 40°39' W 074°04'0 0.0
2016-Feb-11 06:29N 40°39' W 074°04'0 0.0
2016-Feb-11 05:33N 40°39' W 074°04'0 0.1
2016-Feb-11 04:33N 40°39' W 074°04'0 0.0
2016-Feb-11 03:33N 40°39' W 074°04'4 4.1
2016-Feb-11 02:34N 40°42' W 074°01'4 4.0
2016-Feb-11 01:33N 40°39' W 074°04'2 2.2
2016-Feb-11 00:33N 40°40' W 074°03'0 0.1
2016-Feb-10 23:33N 40°40' W 074°03'2 1.6
2016-Feb-10 22:33N 40°39' W 074°04'0 0.5
2016-Feb-10 21:33N 40°39' W 074°04'0 0.1
2016-Feb-10 20:33N 40°39' W 074°04'4 3.8
2016-Feb-10 19:27N 40°42' W 074°01'4 1.0
2016-Feb-10 15:17N 40°39' W 074°04'4 5.8
2016-Feb-10 14:33N 40°42' W 074°01'0 0.1
2016-Feb-10 13:33N 40°42' W 074°01'0 0.1
2016-Feb-10 12:33N 40°42' W 074°01'4 4.1
2016-Feb-10 11:34N 40°39' W 074°04'0 0.0
2016-Feb-10 10:33N 40°39' W 074°04'0 0.0
2016-Feb-10 09:33N 40°39' W 074°04'0 0.0
2016-Feb-10 08:32N 40°39' W 074°04'0 0.0
2016-Feb-10 07:32N 40°39' W 074°04'0 0.0
2016-Feb-10 06:32N 40°39' W 074°04'0 0.2
2016-Feb-10 05:33N 40°39' W 074°04'0 0.2
2016-Feb-10 04:34N 40°39' W 074°04'0 0.1
2016-Feb-10 03:33N 40°39' W 074°04'4 4.2
2016-Feb-10 02:33N 40°42' W 074°01'4 4.3
2016-Feb-10 01:33N 40°39' W 074°04'2 1.9
2016-Feb-10 00:33N 40°40' W 074°03'1 0.9
2016-Feb-09 23:34N 40°39' W 074°03'0 0.4
2016-Feb-09 22:34N 40°39' W 074°04'1 0.6
2016-Feb-09 21:34N 40°39' W 074°04'0 0.1
2016-Feb-09 20:33N 40°39' W 074°04'4 3.9
2016-Feb-09 19:28N 40°42' W 074°01'4 2.1
2016-Feb-09 17:24N 40°39' W 074°04'0 0.1
2016-Feb-09 16:34N 40°39' W 074°04'0 0.1
2016-Feb-09 15:33N 40°39' W 074°04'4 4.3
2016-Feb-09 14:34N 40°42' W 074°01'0 0.0
2016-Feb-09 13:34N 40°42' W 074°01'0 0.2
2016-Feb-09 12:33N 40°42' W 074°01'4 4.3
2016-Feb-09 11:34N 40°38' W 074°04'1 0.5
2016-Feb-09 10:34N 40°39' W 074°04'0 0.0
2016-Feb-09 09:33N 40°39' W 074°04'0 0.0
2016-Feb-09 08:30N 40°39' W 074°04'0 0.0
2016-Feb-09 07:33N 40°39' W 074°04'0 0.0
2016-Feb-09 06:33N 40°39' W 074°04'0 0.0
2016-Feb-09 05:33N 40°39' W 074°04'0 0.1
2016-Feb-09 04:34N 40°39' W 074°04'0 0.1
2016-Feb-09 03:34N 40°39' W 074°04'4 4.1
2016-Feb-09 02:33N 40°42' W 074°01'1 0.6
2016-Feb-09 00:33N 40°41' W 074°02'1 0.8
2016-Feb-08 23:33N 40°40' W 074°03'1 1.4
2016-Feb-08 22:34N 40°39' W 074°03'1 0.8
2016-Feb-08 21:33N 40°39' W 074°04'0 0.1
2016-Feb-08 20:34N 40°39' W 074°04'4 4.2
2016-Feb-08 19:34N 40°42' W 074°01'0 0.0
2016-Feb-08 18:34N 40°42' W 074°01'0 0.2
2016-Feb-08 17:33N 40°42' W 074°01'0 0.2
2016-Feb-08 16:26N 40°42' W 074°01'4 5.0
2016-Feb-08 15:33N 40°39' W 074°04'0 0.1
2016-Feb-08 14:33N 40°39' W 074°04'4 4.0
2016-Feb-08 13:29N 40°42' W 074°01'4 0.9
2016-Feb-08 08:31N 40°39' W 074°04'0 0.0
2016-Feb-08 07:31N 40°39' W 074°04'0 0.0
2016-Feb-08 06:31N 40°39' W 074°04'0 0.0
2016-Feb-08 05:33N 40°39' W 074°04'4 4.3
2016-Feb-08 04:33N 40°42' W 074°01'0 0.0
2016-Feb-08 03:34N 40°42' W 074°01'0 0.0
2016-Feb-08 02:34N 40°42' W 074°01'0 0.1
2016-Feb-08 01:33N 40°42' W 074°01'0 0.0
2016-Feb-08 00:33N 40°42' W 074°01'0 0.0
2016-Feb-07 23:33N 40°42' W 074°01'4 4.3
2016-Feb-07 22:33N 40°39' W 074°04'0 0.1
2016-Feb-07 21:33N 40°39' W 074°04'4 4.3
2016-Feb-07 20:33N 40°42' W 074°01'4 3.8
2016-Feb-07 19:27N 40°39' W 074°04'0 0.1
2016-Feb-07 18:33N 40°39' W 074°04'4 4.2
2016-Feb-07 17:33N 40°42' W 074°01'2 2.5
2016-Feb-07 16:34N 40°40' W 074°03'2 1.8
2016-Feb-07 15:33N 40°39' W 074°04'0 0.1
2016-Feb-07 14:33N 40°39' W 074°04'0 0.1
2016-Feb-07 13:33N 40°39' W 074°04'0 0.2
2016-Feb-07 12:33N 40°39' W 074°04'0 0.1
2016-Feb-07 11:33N 40°39' W 074°04'0 0.0
2016-Feb-07 10:33N 40°39' W 074°04'0 0.0
2016-Feb-07 09:32N 40°39' W 074°04'0 0.0
2016-Feb-07 08:32N 40°39' W 074°04'0 0.0
2016-Feb-07 07:32N 40°39' W 074°04'0 0.0
2016-Feb-07 06:32N 40°39' W 074°04'0 0.0
2016-Feb-07 05:33N 40°39' W 074°04'4 4.3
2016-Feb-07 04:34N 40°42' W 074°01'0 0.1
2016-Feb-07 03:33N 40°42' W 074°01'0 0.0
2016-Feb-07 02:33N 40°42' W 074°01'0 0.0
2016-Feb-07 01:33N 40°42' W 074°01'0 0.0
2016-Feb-07 00:34N 40°42' W 074°01'0 0.1
2016-Feb-06 23:33N 40°42' W 074°01'4 4.3
2016-Feb-06 22:33N 40°39' W 074°04'0 0.2
2016-Feb-06 21:33N 40°39' W 074°04'4 4.0
2016-Feb-06 20:33N 40°42' W 074°01'4 4.1
2016-Feb-06 19:33N 40°39' W 074°04'0 0.1
2016-Feb-06 18:33N 40°39' W 074°04'4 4.2
2016-Feb-06 17:34N 40°42' W 074°01'4 4.3
2016-Feb-06 16:34N 40°39' W 074°04'0 0.2
2016-Feb-06 15:33N 40°39' W 074°04'0 0.0
2016-Feb-06 14:34N 40°39' W 074°04'0 0.0
2016-Feb-06 13:33N 40°39' W 074°04'0 0.2
2016-Feb-06 12:33N 40°39' W 074°04'0 0.0
2016-Feb-06 11:33N 40°39' W 074°04'0 0.0
2016-Feb-06 10:33N 40°39' W 074°04'0 0.0
2016-Feb-06 09:31N 40°39' W 074°04'0 0.0
2016-Feb-06 08:31N 40°39' W 074°04'0 0.0
2016-Feb-06 07:31N 40°39' W 074°04'0 0.0
2016-Feb-06 06:31N 40°39' W 074°04'0 0.0
2016-Feb-06 05:33N 40°39' W 074°04'0 0.0
2016-Feb-06 04:33N 40°39' W 074°04'4 2.1
2016-Feb-06 02:33N 40°42' W 074°01'4 4.3
2016-Feb-06 01:33N 40°39' W 074°04'2 1.8
2016-Feb-06 00:33N 40°40' W 074°03'1 0.7
2016-Feb-05 23:34N 40°39' W 074°03'0 0.2
2016-Feb-05 22:33N 40°39' W 074°03'1 0.9
2016-Feb-05 21:33N 40°39' W 074°04'0 0.1
2016-Feb-05 20:33N 40°39' W 074°04'4 4.3
2016-Feb-05 19:33N 40°42' W 074°01'0 0.1
2016-Feb-05 18:34N 40°42' W 074°01'4 4.2
2016-Feb-05 17:33N 40°39' W 074°04'0 0.0
2016-Feb-05 16:33N 40°39' W 074°04'0 0.1
2016-Feb-05 15:33N 40°39' W 074°04'4 4.2
2016-Feb-05 14:34N 40°42' W 074°01'0 0.2
2016-Feb-05 13:33N 40°42' W 074°01'0 0.0
2016-Feb-05 12:34N 40°42' W 074°01'4 4.3
2016-Feb-05 11:34N 40°39' W 074°04'0 0.0
2016-Feb-05 10:33N 40°39' W 074°04'0 0.0
2016-Feb-05 09:32N 40°39' W 074°04'0 0.0
2016-Feb-05 08:32N 40°39' W 074°04'0 0.0
2016-Feb-05 07:32N 40°39' W 074°04'0 0.0
2016-Feb-05 06:32N 40°39' W 074°04'0 0.0
2016-Feb-05 05:32N 40°39' W 074°04'0 0.1
2016-Feb-05 04:33N 40°39' W 074°04'0 0.1
2016-Feb-05 03:33N 40°39' W 074°04'4 4.2
2016-Feb-05 02:34N 40°42' W 074°01'4 4.3
2016-Feb-05 01:33N 40°39' W 074°04'4 4.2
2016-Feb-05 00:34N 40°42' W 074°01'3 3.1
2016-Feb-04 23:33N 40°39' W 074°03'0 0.3
2016-Feb-04 22:34N 40°39' W 074°04'1 0.8
2016-Feb-04 21:34N 40°39' W 074°04'0 0.1
2016-Feb-04 20:33N 40°39' W 074°04'4 4.1
2016-Feb-04 19:34N 40°42' W 074°01'4 4.1
2016-Feb-04 18:33N 40°39' W 074°04'0 0.1
2016-Feb-04 17:34N 40°39' W 074°04'0 0.0
2016-Feb-04 15:24N 40°39' W 074°04'0 0.1
2016-Feb-04 14:33N 40°39' W 074°04'3 3.1
2016-Feb-04 13:33N 40°41' W 074°02'1 0.7
2016-Feb-04 12:33N 40°42' W 074°01'4 4.1
2016-Feb-04 11:34N 40°38' W 074°04'0 0.4
2016-Feb-04 10:34N 40°39' W 074°04'0 0.0
2016-Feb-04 09:34N 40°39' W 074°04'0 0.0
2016-Feb-04 08:32N 40°39' W 074°04'0 0.0
2016-Feb-04 07:32N 40°39' W 074°04'0 0.0
2016-Feb-04 06:32N 40°39' W 074°04'0 0.0
2016-Feb-04 05:32N 40°39' W 074°04'0 0.1
2016-Feb-04 04:33N 40°39' W 074°04'0 0.1
2016-Feb-04 03:34N 40°39' W 074°04'4 4.2
2016-Feb-04 02:33N 40°42' W 074°01'4 4.3
2016-Feb-04 01:33N 40°39' W 074°04'2 1.6
2016-Feb-04 00:33N 40°40' W 074°03'0 0.2
2016-Feb-03 23:33N 40°40' W 074°03'1 0.5
2016-Feb-03 22:33N 40°39' W 074°03'1 1.0
2016-Feb-03 21:34N 40°39' W 074°04'0 0.0
2016-Feb-03 20:33N 40°39' W 074°04'4 4.2
2016-Feb-03 19:33N 40°42' W 074°01'0 0.2
2016-Feb-03 18:34N 40°42' W 074°01'4 3.1
2016-Feb-03 17:20N 40°39' W 074°04'0 0.4
2016-Feb-03 16:34N 40°39' W 074°04'4 4.1
2016-Feb-03 15:34N 40°42' W 074°01'4 4.1
2016-Feb-03 14:32N 40°39' W 074°04'0 0.1
2016-Feb-03 13:31N 40°39' W 074°04'0 0.1
2016-Feb-03 12:31N 40°39' W 074°04'0 0.0
2016-Feb-03 11:33N 40°39' W 074°04'0 0.1
2016-Feb-03 10:33N 40°39' W 074°04'0 0.0
2016-Feb-03 09:33N 40°39' W 074°04'0 0.0
2016-Feb-03 08:31N 40°39' W 074°04'0 0.0
2016-Feb-03 07:31N 40°39' W 074°04'0 0.0
2016-Feb-03 06:31N 40°39' W 074°04'  

Dump ship's entire track history